sensor_id;sensor_type;location;lat;lon;timestamp;temperature;humidity
11142;DHT22;5625;50.122;19.864;2023-09-19T00:00:39;20.30;30.10
11142;DHT22;5625;50.122;19.864;2023-09-19T00:03:09;20.30;69.50
11142;DHT22;5625;50.122;19.864;2023-09-19T00:05:39;20.30;67.00
11142;DHT22;5625;50.122;19.864;2023-09-19T00:08:11;20.30;61.90
11142;DHT22;5625;50.122;19.864;2023-09-19T00:10:43;20.40;73.20
11142;DHT22;5625;50.122;19.864;2023-09-19T00:13:11;20.30;97.70
11142;DHT22;5625;50.122;19.864;2023-09-19T00:15:45;20.30;26.50
11142;DHT22;5625;50.122;19.864;2023-09-19T00:18:17;20.30;16.60
11142;DHT22;5625;50.122;19.864;2023-09-19T00:20:46;20.30;1.00
11142;DHT22;5625;50.122;19.864;2023-09-19T00:23:17;20.30;1.00
11142;DHT22;5625;50.122;19.864;2023-09-19T00:25:48;20.30;1.00
11142;DHT22;5625;50.122;19.864;2023-09-19T00:28:17;20.30;1.00
11142;DHT22;5625;50.122;19.864;2023-09-19T00:30:47;20.30;1.00
11142;DHT22;5625;50.122;19.864;2023-09-19T00:33:17;20.30;1.00
11142;DHT22;5625;50.122;19.864;2023-09-19T00:35:50;20.30;1.00
11142;DHT22;5625;50.122;19.864;2023-09-19T00:38:18;20.30;1.00
11142;DHT22;5625;50.122;19.864;2023-09-19T00:40:51;20.30;1.00
11142;DHT22;5625;50.122;19.864;2023-09-19T00:43:19;20.30;1.00
11142;DHT22;5625;50.122;19.864;2023-09-19T00:45:50;20.30;1.00
11142;DHT22;5625;50.122;19.864;2023-09-19T00:48:20;20.30;1.00
11142;DHT22;5625;50.122;19.864;2023-09-19T00:50:50;20.30;1.00
11142;DHT22;5625;50.122;19.864;2023-09-19T00:53:22;20.30;1.00
11142;DHT22;5625;50.122;19.864;2023-09-19T00:55:53;20.30;1.00
11142;DHT22;5625;50.122;19.864;2023-09-19T00:58:23;20.30;1.00
11142;DHT22;5625;50.122;19.864;2023-09-19T01:00:51;20.30;28.30
11142;DHT22;5625;50.122;19.864;2023-09-19T01:03:20;20.30;57.10
11142;DHT22;5625;50.122;19.864;2023-09-19T01:05:50;20.20;85.50
11142;DHT22;5625;50.122;19.864;2023-09-19T01:08:18;20.20;99.90
11142;DHT22;5625;50.122;19.864;2023-09-19T01:10:52;20.20;99.90
11142;DHT22;5625;50.122;19.864;2023-09-19T01:13:28;20.10;99.90
11142;DHT22;5625;50.122;19.864;2023-09-19T01:16:05;20.10;99.90
11142;DHT22;5625;50.122;19.864;2023-09-19T01:18:39;20.00;99.90
11142;DHT22;5625;50.122;19.864;2023-09-19T01:21:13;19.90;99.90
11142;DHT22;5625;50.122;19.864;2023-09-19T01:27:06;19.90;99.90
11142;DHT22;5625;50.122;19.864;2023-09-19T01:29:42;19.90;99.90
11142;DHT22;5625;50.122;19.864;2023-09-19T01:32:17;19.80;1.00
11142;DHT22;5625;50.122;19.864;2023-09-19T01:34:49;19.80;1.00
11142;DHT22;5625;50.122;19.864;2023-09-19T01:37:21;19.80;1.00
11142;DHT22;5625;50.122;19.864;2023-09-19T01:39:55;19.80;1.00
11142;DHT22;5625;50.122;19.864;2023-09-19T01:42:37;19.80;1.00
11142;DHT22;5625;50.122;19.864;2023-09-19T01:45:12;19.80;1.00
11142;DHT22;5625;50.122;19.864;2023-09-19T01:47:48;19.80;1.00
11142;DHT22;5625;50.122;19.864;2023-09-19T01:50:22;19.80;1.00
11142;DHT22;5625;50.122;19.864;2023-09-19T01:52:57;19.90;1.00
11142;DHT22;5625;50.122;19.864;2023-09-19T01:55:29;19.90;1.00
11142;DHT22;5625;50.122;19.864;2023-09-19T01:58:01;19.80;1.00
11142;DHT22;5625;50.122;19.864;2023-09-19T02:00:34;19.80;1.00
11142;DHT22;5625;50.122;19.864;2023-09-19T02:03:05;19.80;1.00
11142;DHT22;5625;50.122;19.864;2023-09-19T02:05:34;19.80;11.80
11142;DHT22;5625;50.122;19.864;2023-09-19T02:08:03;19.80;12.60
11142;DHT22;5625;50.122;19.864;2023-09-19T02:10:31;19.80;25.30
11142;DHT22;5625;50.122;19.864;2023-09-19T02:13:00;19.80;28.80
11142;DHT22;5625;50.122;19.864;2023-09-19T02:15:31;19.80;22.30
11142;DHT22;5625;50.122;19.864;2023-09-19T02:18:01;19.80;28.30
11142;DHT22;5625;50.122;19.864;2023-09-19T02:20:31;19.80;25.70
11142;DHT22;5625;50.122;19.864;2023-09-19T02:22:59;19.80;24.70
11142;DHT22;5625;50.122;19.864;2023-09-19T02:25:29;19.80;30.30
11142;DHT22;5625;50.122;19.864;2023-09-19T02:27:57;19.80;40.70
11142;DHT22;5625;50.122;19.864;2023-09-19T02:30:28;19.80;40.80
11142;DHT22;5625;50.122;19.864;2023-09-19T02:32:56;19.70;36.50
11142;DHT22;5625;50.122;19.864;2023-09-19T02:35:24;19.70;36.10
11142;DHT22;5625;50.122;19.864;2023-09-19T02:37:54;19.70;51.40
11142;DHT22;5625;50.122;19.864;2023-09-19T02:40:22;19.70;48.90
11142;DHT22;5625;50.122;19.864;2023-09-19T02:42:54;19.70;54.70
11142;DHT22;5625;50.122;19.864;2023-09-19T02:45:22;19.70;60.60
11142;DHT22;5625;50.122;19.864;2023-09-19T02:47:50;19.60;61.90
11142;DHT22;5625;50.122;19.864;2023-09-19T02:50:18;19.70;63.30
11142;DHT22;5625;50.122;19.864;2023-09-19T02:52:46;19.60;60.80
11142;DHT22;5625;50.122;19.864;2023-09-19T02:55:18;19.70;71.40
11142;DHT22;5625;50.122;19.864;2023-09-19T02:57:47;19.70;65.10
11142;DHT22;5625;50.122;19.864;2023-09-19T03:00:16;19.70;78.40
11142;DHT22;5625;50.122;19.864;2023-09-19T03:02:47;19.70;73.50
11142;DHT22;5625;50.122;19.864;2023-09-19T03:05:16;19.70;81.10
11142;DHT22;5625;50.122;19.864;2023-09-19T03:07:44;19.70;81.80
11142;DHT22;5625;50.122;19.864;2023-09-19T03:10:14;19.70;83.30
11142;DHT22;5625;50.122;19.864;2023-09-19T03:12:44;19.60;86.30
11142;DHT22;5625;50.122;19.864;2023-09-19T03:15:12;19.70;88.50
11142;DHT22;5625;50.122;19.864;2023-09-19T03:17:43;19.60;87.50
11142;DHT22;5625;50.122;19.864;2023-09-19T03:20:12;19.60;88.10
11142;DHT22;5625;50.122;19.864;2023-09-19T03:22:44;19.50;91.20
11142;DHT22;5625;50.122;19.864;2023-09-19T03:25:12;19.50;93.80
11142;DHT22;5625;50.122;19.864;2023-09-19T03:27:41;19.50;94.90
11142;DHT22;5625;50.122;19.864;2023-09-19T03:30:11;19.50;95.20
11142;DHT22;5625;50.122;19.864;2023-09-19T03:32:44;19.50;98.90
11142;DHT22;5625;50.122;19.864;2023-09-19T03:35:13;19.50;99.60
11142;DHT22;5625;50.122;19.864;2023-09-19T03:37:41;19.50;98.50
11142;DHT22;5625;50.122;19.864;2023-09-19T03:40:10;19.50;95.80
11142;DHT22;5625;50.122;19.864;2023-09-19T03:42:39;19.50;99.90
11142;DHT22;5625;50.122;19.864;2023-09-19T03:45:08;19.50;99.90
11142;DHT22;5625;50.122;19.864;2023-09-19T03:47:40;19.50;99.90
11142;DHT22;5625;50.122;19.864;2023-09-19T03:50:09;19.50;99.90
11142;DHT22;5625;50.122;19.864;2023-09-19T03:52:38;19.50;99.90
11142;DHT22;5625;50.122;19.864;2023-09-19T03:55:07;19.50;99.90
11142;DHT22;5625;50.122;19.864;2023-09-19T03:57:36;19.50;99.90
11142;DHT22;5625;50.122;19.864;2023-09-19T04:00:06;19.60;99.90
11142;DHT22;5625;50.122;19.864;2023-09-19T04:02:40;19.60;99.90
11142;DHT22;5625;50.122;19.864;2023-09-19T04:05:08;19.50;99.90
11142;DHT22;5625;50.122;19.864;2023-09-19T04:07:37;19.50;99.90
11142;DHT22;5625;50.122;19.864;2023-09-19T04:10:06;19.50;99.90
11142;DHT22;5625;50.122;19.864;2023-09-19T04:12:35;19.60;99.90
11142;DHT22;5625;50.122;19.864;2023-09-19T04:15:04;19.60;99.90
11142;DHT22;5625;50.122;19.864;2023-09-19T04:17:33;19.60;99.90
11142;DHT22;5625;50.122;19.864;2023-09-19T04:20:03;19.60;99.90
11142;DHT22;5625;50.122;19.864;2023-09-19T04:22:33;19.60;99.90
11142;DHT22;5625;50.122;19.864;2023-09-19T04:25:04;19.60;99.90
11142;DHT22;5625;50.122;19.864;2023-09-19T04:27:33;19.60;99.90
11142;DHT22;5625;50.122;19.864;2023-09-19T04:30:02;19.60;99.90
11142;DHT22;5625;50.122;19.864;2023-09-19T04:32:37;19.60;99.90
11142;DHT22;5625;50.122;19.864;2023-09-19T04:35:09;19.60;99.90
11142;DHT22;5625;50.122;19.864;2023-09-19T04:37:38;19.60;99.90
11142;DHT22;5625;50.122;19.864;2023-09-19T04:40:09;19.60;99.90
11142;DHT22;5625;50.122;19.864;2023-09-19T04:42:41;19.60;99.90
11142;DHT22;5625;50.122;19.864;2023-09-19T04:45:10;19.60;99.90
11142;DHT22;5625;50.122;19.864;2023-09-19T04:47:38;19.60;99.90
11142;DHT22;5625;50.122;19.864;2023-09-19T04:50:09;19.60;99.90
11142;DHT22;5625;50.122;19.864;2023-09-19T04:52:41;19.60;99.90
11142;DHT22;5625;50.122;19.864;2023-09-19T04:55:11;19.60;99.90
11142;DHT22;5625;50.122;19.864;2023-09-19T04:57:44;19.60;99.90
11142;DHT22;5625;50.122;19.864;2023-09-19T05:00:14;19.60;99.90
11142;DHT22;5625;50.122;19.864;2023-09-19T05:02:43;19.60;99.90
11142;DHT22;5625;50.122;19.864;2023-09-19T05:05:13;19.60;99.90
11142;DHT22;5625;50.122;19.864;2023-09-19T05:07:44;19.50;99.90
11142;DHT22;5625;50.122;19.864;2023-09-19T05:10:12;19.50;99.90
11142;DHT22;5625;50.122;19.864;2023-09-19T05:12:41;19.50;99.90
11142;DHT22;5625;50.122;19.864;2023-09-19T05:15:12;19.60;99.90
11142;DHT22;5625;50.122;19.864;2023-09-19T05:17:41;19.60;99.90
11142;DHT22;5625;50.122;19.864;2023-09-19T05:20:11;19.60;99.90
11142;DHT22;5625;50.122;19.864;2023-09-19T05:22:42;19.60;99.90
11142;DHT22;5625;50.122;19.864;2023-09-19T05:25:13;19.60;99.90
11142;DHT22;5625;50.122;19.864;2023-09-19T05:27:43;19.60;99.90
11142;DHT22;5625;50.122;19.864;2023-09-19T05:30:12;19.60;99.90
11142;DHT22;5625;50.122;19.864;2023-09-19T05:32:42;19.60;99.90
11142;DHT22;5625;50.122;19.864;2023-09-19T05:35:10;19.60;99.90
11142;DHT22;5625;50.122;19.864;2023-09-19T05:37:39;19.60;99.90
11142;DHT22;5625;50.122;19.864;2023-09-19T05:40:11;19.60;99.90
11142;DHT22;5625;50.122;19.864;2023-09-19T05:42:42;19.60;99.90
11142;DHT22;5625;50.122;19.864;2023-09-19T05:45:11;19.60;99.90
11142;DHT22;5625;50.122;19.864;2023-09-19T05:47:40;19.60;99.90
11142;DHT22;5625;50.122;19.864;2023-09-19T05:50:12;19.60;99.90
11142;DHT22;5625;50.122;19.864;2023-09-19T05:52:41;19.60;99.90
11142;DHT22;5625;50.122;19.864;2023-09-19T05:55:13;19.60;99.90
11142;DHT22;5625;50.122;19.864;2023-09-19T05:57:41;19.60;99.90
11142;DHT22;5625;50.122;19.864;2023-09-19T06:00:11;19.60;99.90
11142;DHT22;5625;50.122;19.864;2023-09-19T06:02:40;19.60;99.90
11142;DHT22;5625;50.122;19.864;2023-09-19T06:05:08;19.60;99.90
11142;DHT22;5625;50.122;19.864;2023-09-19T06:07:37;19.60;99.90
11142;DHT22;5625;50.122;19.864;2023-09-19T06:10:06;19.60;99.90
11142;DHT22;5625;50.122;19.864;2023-09-19T06:12:39;19.60;99.90
11142;DHT22;5625;50.122;19.864;2023-09-19T06:15:08;19.60;99.90
11142;DHT22;5625;50.122;19.864;2023-09-19T06:17:39;19.60;99.90
11142;DHT22;5625;50.122;19.864;2023-09-19T06:20:08;19.60;99.90
11142;DHT22;5625;50.122;19.864;2023-09-19T06:22:40;19.60;99.90
11142;DHT22;5625;50.122;19.864;2023-09-19T06:25:10;19.60;99.90
11142;DHT22;5625;50.122;19.864;2023-09-19T06:27:40;19.60;99.90
11142;DHT22;5625;50.122;19.864;2023-09-19T06:30:10;19.60;99.90
11142;DHT22;5625;50.122;19.864;2023-09-19T06:32:39;19.60;99.90
11142;DHT22;5625;50.122;19.864;2023-09-19T06:35:11;19.60;99.90
11142;DHT22;5625;50.122;19.864;2023-09-19T06:37:40;19.60;99.90
11142;DHT22;5625;50.122;19.864;2023-09-19T06:40:09;19.60;99.90
11142;DHT22;5625;50.122;19.864;2023-09-19T06:42:43;19.60;99.90
11142;DHT22;5625;50.122;19.864;2023-09-19T06:45:12;19.60;99.90
11142;DHT22;5625;50.122;19.864;2023-09-19T06:47:45;19.60;99.90
11142;DHT22;5625;50.122;19.864;2023-09-19T06:50:16;19.60;99.90
11142;DHT22;5625;50.122;19.864;2023-09-19T06:52:46;19.60;99.90
11142;DHT22;5625;50.122;19.864;2023-09-19T06:55:17;19.60;99.90
11142;DHT22;5625;50.122;19.864;2023-09-19T06:57:48;19.60;99.90
11142;DHT22;5625;50.122;19.864;2023-09-19T07:00:17;19.60;99.90
11142;DHT22;5625;50.122;19.864;2023-09-19T07:02:58;19.60;99.90
11142;DHT22;5625;50.122;19.864;2023-09-19T07:05:28;19.60;99.90
11142;DHT22;5625;50.122;19.864;2023-09-19T07:07:58;19.60;99.90
11142;DHT22;5625;50.122;19.864;2023-09-19T07:10:28;19.60;99.90
11142;DHT22;5625;50.122;19.864;2023-09-19T07:12:58;19.60;99.90
11142;DHT22;5625;50.122;19.864;2023-09-19T07:15:27;19.60;99.90
11142;DHT22;5625;50.122;19.864;2023-09-19T07:17:55;19.60;99.90
11142;DHT22;5625;50.122;19.864;2023-09-19T07:20:24;19.50;99.90
11142;DHT22;5625;50.122;19.864;2023-09-19T07:22:54;19.50;99.90
11142;DHT22;5625;50.122;19.864;2023-09-19T07:25:22;19.50;99.90
11142;DHT22;5625;50.122;19.864;2023-09-19T07:27:51;19.50;99.90
11142;DHT22;5625;50.122;19.864;2023-09-19T07:30:21;19.50;99.90
11142;DHT22;5625;50.122;19.864;2023-09-19T07:32:52;19.50;99.90
11142;DHT22;5625;50.122;19.864;2023-09-19T07:35:20;19.50;99.90
11142;DHT22;5625;50.122;19.864;2023-09-19T07:37:49;19.50;99.90
11142;DHT22;5625;50.122;19.864;2023-09-19T07:40:19;19.50;99.90
11142;DHT22;5625;50.122;19.864;2023-09-19T07:42:47;19.50;99.90
11142;DHT22;5625;50.122;19.864;2023-09-19T07:45:17;19.40;99.90
11142;DHT22;5625;50.122;19.864;2023-09-19T07:47:50;19.40;99.90
11142;DHT22;5625;50.122;19.864;2023-09-19T07:50:19;19.40;99.90
11142;DHT22;5625;50.122;19.864;2023-09-19T07:52:49;19.40;99.90
11142;DHT22;5625;50.122;19.864;2023-09-19T07:55:18;19.40;99.90
11142;DHT22;5625;50.122;19.864;2023-09-19T07:57:50;19.40;99.90
11142;DHT22;5625;50.122;19.864;2023-09-19T08:00:18;19.30;99.90
11142;DHT22;5625;50.122;19.864;2023-09-19T08:02:46;19.30;99.90
11142;DHT22;5625;50.122;19.864;2023-09-19T08:05:25;19.30;99.90
11142;DHT22;5625;50.122;19.864;2023-09-19T08:07:53;19.30;99.90
11142;DHT22;5625;50.122;19.864;2023-09-19T08:10:23;19.30;99.90
11142;DHT22;5625;50.122;19.864;2023-09-19T08:12:54;19.20;99.90
11142;DHT22;5625;50.122;19.864;2023-09-19T08:15:25;19.20;99.90
11142;DHT22;5625;50.122;19.864;2023-09-19T08:17:54;19.10;99.90
11142;DHT22;5625;50.122;19.864;2023-09-19T08:20:22;19.10;99.90
11142;DHT22;5625;50.122;19.864;2023-09-19T08:22:53;19.00;99.90
11142;DHT22;5625;50.122;19.864;2023-09-19T08:25:22;18.90;99.90
11142;DHT22;5625;50.122;19.864;2023-09-19T08:27:52;18.90;99.90
11142;DHT22;5625;50.122;19.864;2023-09-19T08:30:21;18.80;99.90
11142;DHT22;5625;50.122;19.864;2023-09-19T08:32:57;18.80;99.90
11142;DHT22;5625;50.122;19.864;2023-09-19T08:35:26;18.80;99.90
11142;DHT22;5625;50.122;19.864;2023-09-19T08:37:57;18.80;99.90
11142;DHT22;5625;50.122;19.864;2023-09-19T08:40:27;18.80;99.90
11142;DHT22;5625;50.122;19.864;2023-09-19T08:42:57;18.80;99.90
11142;DHT22;5625;50.122;19.864;2023-09-19T08:45:26;18.80;99.90
11142;DHT22;5625;50.122;19.864;2023-09-19T08:48:02;18.80;99.90
11142;DHT22;5625;50.122;19.864;2023-09-19T08:50:39;18.80;99.90
11142;DHT22;5625;50.122;19.864;2023-09-19T08:53:11;18.90;99.90
11142;DHT22;5625;50.122;19.864;2023-09-19T08:55:43;18.90;99.90
11142;DHT22;5625;50.122;19.864;2023-09-19T08:58:17;18.90;99.90
11142;DHT22;5625;50.122;19.864;2023-09-19T09:00:52;18.80;99.90
11142;DHT22;5625;50.122;19.864;2023-09-19T09:03:22;18.90;99.90
11142;DHT22;5625;50.122;19.864;2023-09-19T09:05:51;18.90;99.90
11142;DHT22;5625;50.122;19.864;2023-09-19T09:08:21;18.90;99.90
11142;DHT22;5625;50.122;19.864;2023-09-19T09:10:50;18.90;99.90
11142;DHT22;5625;50.122;19.864;2023-09-19T09:13:19;18.90;99.90
11142;DHT22;5625;50.122;19.864;2023-09-19T09:15:48;18.90;99.90
11142;DHT22;5625;50.122;19.864;2023-09-19T09:18:17;18.90;99.90
11142;DHT22;5625;50.122;19.864;2023-09-19T09:20:45;18.90;99.90
11142;DHT22;5625;50.122;19.864;2023-09-19T09:23:15;18.90;99.90
11142;DHT22;5625;50.122;19.864;2023-09-19T09:25:52;18.90;99.90
11142;DHT22;5625;50.122;19.864;2023-09-19T09:28:25;19.00;99.90
11142;DHT22;5625;50.122;19.864;2023-09-19T09:30:55;19.00;99.90
11142;DHT22;5625;50.122;19.864;2023-09-19T09:33:23;19.00;99.90
11142;DHT22;5625;50.122;19.864;2023-09-19T09:35:53;19.00;99.90
11142;DHT22;5625;50.122;19.864;2023-09-19T09:38:24;19.00;99.90
11142;DHT22;5625;50.122;19.864;2023-09-19T09:40:56;19.00;99.90
11142;DHT22;5625;50.122;19.864;2023-09-19T09:43:31;19.10;99.90
11142;DHT22;5625;50.122;19.864;2023-09-19T09:46:20;19.00;99.90
11142;DHT22;5625;50.122;19.864;2023-09-19T09:49:11;19.00;99.90
11142;DHT22;5625;50.122;19.864;2023-09-19T09:51:48;19.00;99.90
11142;DHT22;5625;50.122;19.864;2023-09-19T09:54:27;19.10;99.90
11142;DHT22;5625;50.122;19.864;2023-09-19T09:57:03;19.10;99.90
11142;DHT22;5625;50.122;19.864;2023-09-19T09:59:47;19.10;99.90
11142;DHT22;5625;50.122;19.864;2023-09-19T10:02:18;19.10;99.90
11142;DHT22;5625;50.122;19.864;2023-09-19T10:04:52;19.10;99.90
11142;DHT22;5625;50.122;19.864;2023-09-19T10:07:27;19.00;99.90
11142;DHT22;5625;50.122;19.864;2023-09-19T10:10:00;19.00;99.90
11142;DHT22;5625;50.122;19.864;2023-09-19T10:12:43;19.00;99.90
11142;DHT22;5625;50.122;19.864;2023-09-19T10:15:12;19.00;99.90
11142;DHT22;5625;50.122;19.864;2023-09-19T10:17:45;19.00;99.90
11142;DHT22;5625;50.122;19.864;2023-09-19T10:20:14;19.00;99.90
11142;DHT22;5625;50.122;19.864;2023-09-19T10:23:05;19.00;99.90
11142;DHT22;5625;50.122;19.864;2023-09-19T10:25:39;19.00;99.90
11142;DHT22;5625;50.122;19.864;2023-09-19T10:28:10;19.00;99.90
11142;DHT22;5625;50.122;19.864;2023-09-19T10:30:42;19.00;99.90
11142;DHT22;5625;50.122;19.864;2023-09-19T10:33:13;19.00;99.90
11142;DHT22;5625;50.122;19.864;2023-09-19T10:35:44;19.10;99.90
11142;DHT22;5625;50.122;19.864;2023-09-19T10:38:13;19.00;99.90
11142;DHT22;5625;50.122;19.864;2023-09-19T10:40:49;19.10;99.90
11142;DHT22;5625;50.122;19.864;2023-09-19T10:43:21;19.10;99.90
11142;DHT22;5625;50.122;19.864;2023-09-19T10:45:50;19.10;99.90
11142;DHT22;5625;50.122;19.864;2023-09-19T10:48:20;19.10;99.90
11142;DHT22;5625;50.122;19.864;2023-09-19T10:50:58;19.20;99.90
11142;DHT22;5625;50.122;19.864;2023-09-19T10:53:41;19.10;99.90
11142;DHT22;5625;50.122;19.864;2023-09-19T10:56:11;19.10;99.90
11142;DHT22;5625;50.122;19.864;2023-09-19T10:58:45;19.20;99.90
11142;DHT22;5625;50.122;19.864;2023-09-19T11:01:13;19.10;99.90
11142;DHT22;5625;50.122;19.864;2023-09-19T11:03:45;19.20;99.90
11142;DHT22;5625;50.122;19.864;2023-09-19T11:06:17;19.20;99.90
11142;DHT22;5625;50.122;19.864;2023-09-19T11:08:59;19.20;99.90
11142;DHT22;5625;50.122;19.864;2023-09-19T11:11:50;19.20;99.90
11142;DHT22;5625;50.122;19.864;2023-09-19T11:14:41;19.20;99.90
11142;DHT22;5625;50.122;19.864;2023-09-19T11:17:33;19.20;99.90
11142;DHT22;5625;50.122;19.864;2023-09-19T11:23:18;19.20;99.90
11142;DHT22;5625;50.122;19.864;2023-09-19T11:25:50;19.20;99.90
11142;DHT22;5625;50.122;19.864;2023-09-19T11:28:34;19.20;99.90
11142;DHT22;5625;50.122;19.864;2023-09-19T11:34:57;19.20;99.90
11142;DHT22;5625;50.122;19.864;2023-09-19T11:37:59;19.20;99.90
11142;DHT22;5625;50.122;19.864;2023-09-19T11:40:34;19.20;99.90
11142;DHT22;5625;50.122;19.864;2023-09-19T11:43:32;19.20;99.90
11142;DHT22;5625;50.122;19.864;2023-09-19T11:46:06;19.20;99.90
11142;DHT22;5625;50.122;19.864;2023-09-19T11:48:35;19.20;99.90
11142;DHT22;5625;50.122;19.864;2023-09-19T11:51:14;19.10;99.90
11142;DHT22;5625;50.122;19.864;2023-09-19T11:53:46;19.20;99.90
11142;DHT22;5625;50.122;19.864;2023-09-19T11:56:18;19.20;99.90
11142;DHT22;5625;50.122;19.864;2023-09-19T11:58:49;19.10;99.90
11142;DHT22;5625;50.122;19.864;2023-09-19T12:01:26;19.10;99.90
11142;DHT22;5625;50.122;19.864;2023-09-19T12:03:58;19.10;99.90
11142;DHT22;5625;50.122;19.864;2023-09-19T12:06:29;19.10;99.90
11142;DHT22;5625;50.122;19.864;2023-09-19T12:08:59;19.10;99.90
11142;DHT22;5625;50.122;19.864;2023-09-19T12:11:30;19.10;99.90
11142;DHT22;5625;50.122;19.864;2023-09-19T12:14:01;19.10;99.90
11142;DHT22;5625;50.122;19.864;2023-09-19T12:16:31;19.10;99.90
11142;DHT22;5625;50.122;19.864;2023-09-19T12:19:18;19.10;99.90
11142;DHT22;5625;50.122;19.864;2023-09-19T12:21:58;19.10;99.90
11142;DHT22;5625;50.122;19.864;2023-09-19T12:24:31;19.10;99.90
11142;DHT22;5625;50.122;19.864;2023-09-19T12:27:03;19.10;99.90
11142;DHT22;5625;50.122;19.864;2023-09-19T12:29:41;19.10;99.90
11142;DHT22;5625;50.122;19.864;2023-09-19T12:32:10;19.10;99.90
11142;DHT22;5625;50.122;19.864;2023-09-19T12:34:38;19.10;99.90
11142;DHT22;5625;50.122;19.864;2023-09-19T12:37:12;19.10;99.90
11142;DHT22;5625;50.122;19.864;2023-09-19T12:39:43;19.10;99.90
11142;DHT22;5625;50.122;19.864;2023-09-19T12:42:16;19.10;99.90
11142;DHT22;5625;50.122;19.864;2023-09-19T12:44:46;19.20;99.90
11142;DHT22;5625;50.122;19.864;2023-09-19T12:47:15;19.20;99.90
11142;DHT22;5625;50.122;19.864;2023-09-19T12:50:10;19.20;99.90
11142;DHT22;5625;50.122;19.864;2023-09-19T12:52:44;19.20;99.90
11142;DHT22;5625;50.122;19.864;2023-09-19T12:55:22;19.30;99.90
11142;DHT22;5625;50.122;19.864;2023-09-19T12:58:11;19.30;99.90
11142;DHT22;5625;50.122;19.864;2023-09-19T13:00:44;19.30;99.90
11142;DHT22;5625;50.122;19.864;2023-09-19T13:03:14;19.30;99.90
11142;DHT22;5625;50.122;19.864;2023-09-19T13:05:51;19.30;99.90
11142;DHT22;5625;50.122;19.864;2023-09-19T13:08:26;19.30;99.90
11142;DHT22;5625;50.122;19.864;2023-09-19T13:11:10;19.40;99.90
11142;DHT22;5625;50.122;19.864;2023-09-19T13:13:42;19.40;99.90
11142;DHT22;5625;50.122;19.864;2023-09-19T13:16:16;19.40;99.90
11142;DHT22;5625;50.122;19.864;2023-09-19T13:18:52;19.50;99.90
11142;DHT22;5625;50.122;19.864;2023-09-19T13:21:31;19.50;99.90
11142;DHT22;5625;50.122;19.864;2023-09-19T13:24:22;19.60;99.90
11142;DHT22;5625;50.122;19.864;2023-09-19T13:26:54;19.60;99.90
11142;DHT22;5625;50.122;19.864;2023-09-19T13:29:24;19.70;99.90
11142;DHT22;5625;50.122;19.864;2023-09-19T13:31:53;19.60;99.90
11142;DHT22;5625;50.122;19.864;2023-09-19T13:34:21;19.60;99.90
11142;DHT22;5625;50.122;19.864;2023-09-19T13:36:51;19.60;99.90
11142;DHT22;5625;50.122;19.864;2023-09-19T13:39:21;19.60;99.90
11142;DHT22;5625;50.122;19.864;2023-09-19T13:41:51;19.60;99.90
11142;DHT22;5625;50.122;19.864;2023-09-19T13:44:19;19.70;99.90
11142;DHT22;5625;50.122;19.864;2023-09-19T13:46:47;19.70;99.90
11142;DHT22;5625;50.122;19.864;2023-09-19T13:49:16;19.70;99.90
11142;DHT22;5625;50.122;19.864;2023-09-19T13:51:48;19.70;99.90
11142;DHT22;5625;50.122;19.864;2023-09-19T13:54:16;19.70;99.90
11142;DHT22;5625;50.122;19.864;2023-09-19T13:56:46;19.70;99.90
11142;DHT22;5625;50.122;19.864;2023-09-19T13:59:14;19.70;99.90
11142;DHT22;5625;50.122;19.864;2023-09-19T14:01:43;19.70;99.90
11142;DHT22;5625;50.122;19.864;2023-09-19T14:04:13;19.80;99.90
11142;DHT22;5625;50.122;19.864;2023-09-19T14:06:42;19.70;99.90
11142;DHT22;5625;50.122;19.864;2023-09-19T14:09:12;19.80;99.90
11142;DHT22;5625;50.122;19.864;2023-09-19T14:11:40;19.80;99.90
11142;DHT22;5625;50.122;19.864;2023-09-19T14:14:10;19.80;99.90
11142;DHT22;5625;50.122;19.864;2023-09-19T14:16:38;19.90;99.90
11142;DHT22;5625;50.122;19.864;2023-09-19T14:19:11;19.90;99.90
11142;DHT22;5625;50.122;19.864;2023-09-19T14:21:40;20.10;99.90
11142;DHT22;5625;50.122;19.864;2023-09-19T14:24:08;20.20;99.90
11142;DHT22;5625;50.122;19.864;2023-09-19T14:26:38;20.20;99.90
11142;DHT22;5625;50.122;19.864;2023-09-19T14:29:06;20.20;99.90
11142;DHT22;5625;50.122;19.864;2023-09-19T14:31:38;20.40;99.90
11142;DHT22;5625;50.122;19.864;2023-09-19T14:34:07;20.40;99.90
11142;DHT22;5625;50.122;19.864;2023-09-19T14:36:36;20.50;99.90
11142;DHT22;5625;50.122;19.864;2023-09-19T14:39:05;20.50;99.90
11142;DHT22;5625;50.122;19.864;2023-09-19T14:41:35;20.50;99.90
11142;DHT22;5625;50.122;19.864;2023-09-19T14:44:06;20.40;99.90
11142;DHT22;5625;50.122;19.864;2023-09-19T14:46:35;20.40;99.90
11142;DHT22;5625;50.122;19.864;2023-09-19T14:49:05;20.40;99.90
11142;DHT22;5625;50.122;19.864;2023-09-19T14:51:33;20.50;99.90
11142;DHT22;5625;50.122;19.864;2023-09-19T14:54:03;20.50;99.90
11142;DHT22;5625;50.122;19.864;2023-09-19T14:56:31;20.60;99.90
11142;DHT22;5625;50.122;19.864;2023-09-19T14:58:59;20.70;99.90
11142;DHT22;5625;50.122;19.864;2023-09-19T15:01:28;20.80;99.90
11142;DHT22;5625;50.122;19.864;2023-09-19T15:03:56;20.80;99.90
11142;DHT22;5625;50.122;19.864;2023-09-19T15:06:26;20.80;99.90
11142;DHT22;5625;50.122;19.864;2023-09-19T15:08:54;20.70;99.90
11142;DHT22;5625;50.122;19.864;2023-09-19T15:11:22;20.70;99.90
11142;DHT22;5625;50.122;19.864;2023-09-19T15:13:51;20.70;99.90
11142;DHT22;5625;50.122;19.864;2023-09-19T15:16:20;20.70;99.90
11142;DHT22;5625;50.122;19.864;2023-09-19T15:18:49;20.70;99.90
11142;DHT22;5625;50.122;19.864;2023-09-19T15:21:19;20.60;99.90
11142;DHT22;5625;50.122;19.864;2023-09-19T15:23:49;20.60;99.90
11142;DHT22;5625;50.122;19.864;2023-09-19T15:26:17;20.50;99.90
11142;DHT22;5625;50.122;19.864;2023-09-19T15:28:48;20.50;99.90
11142;DHT22;5625;50.122;19.864;2023-09-19T15:31:16;20.40;99.90
11142;DHT22;5625;50.122;19.864;2023-09-19T15:33:44;20.40;99.90
11142;DHT22;5625;50.122;19.864;2023-09-19T15:36:14;20.40;99.90
11142;DHT22;5625;50.122;19.864;2023-09-19T15:38:58;20.40;99.90
11142;DHT22;5625;50.122;19.864;2023-09-19T15:41:29;20.30;99.90
11142;DHT22;5625;50.122;19.864;2023-09-19T15:43:58;20.30;99.90
11142;DHT22;5625;50.122;19.864;2023-09-19T15:46:28;20.30;99.90
11142;DHT22;5625;50.122;19.864;2023-09-19T15:48:57;20.20;99.90
11142;DHT22;5625;50.122;19.864;2023-09-19T15:51:27;20.20;99.90
11142;DHT22;5625;50.122;19.864;2023-09-19T15:53:57;20.20;99.90
11142;DHT22;5625;50.122;19.864;2023-09-19T15:56:27;20.20;99.90
11142;DHT22;5625;50.122;19.864;2023-09-19T15:58:55;20.20;99.90
11142;DHT22;5625;50.122;19.864;2023-09-19T16:01:24;20.10;99.90
11142;DHT22;5625;50.122;19.864;2023-09-19T16:03:54;20.10;99.90
11142;DHT22;5625;50.122;19.864;2023-09-19T16:06:24;20.10;99.90
11142;DHT22;5625;50.122;19.864;2023-09-19T16:08:53;20.10;99.90